Terminal Aerodrome Forecast
Issued by NWS

Home | Current Version | Previous Version | Graphics & Text | Print | Product List | Glossary On
Versions: 1 2 3 4 5 6 7 8 9 10 11 12 13 14 15 16 17
533
FTUS43 KMPX 212334
TAFRNH
TAF
KRNH 212334Z 2200/2224 13005KT P6SM OVC018
     FM220400 00000KT P6SM BKN015
     FM220800 00000KT 3SM BR BKN010
      TEMPO 2209/2213 1SM BR BKN008
     FM221400 00000KT P6SM BKN010
     FM221700 VRB03KT P6SM BKN030
     FM222000 VRB03KT P6SM SCT040=

USA.gov is the U.S. government's official web portal to all federal, state and local government web resources and services.